createdAt,value
2022-12-03T17:40:28.824Z,91.37
2022-12-03T17:42:55.433Z,91.19
2022-12-03T17:45:24.587Z,93.20
2022-12-03T17:47:51.133Z,92.46
2022-12-03T17:50:26.587Z,93.15
2022-12-03T17:52:54.544Z,93.57
2022-12-03T17:55:30.997Z,93.54
2022-12-03T17:58:03.424Z,95.49
2022-12-03T18:00:30.077Z,94.07
2022-12-03T18:02:56.645Z,95.81
2022-12-03T18:05:23.183Z,94.92
2022-12-03T18:07:52.675Z,95.86
2022-12-03T18:10:22.956Z,96.16
2022-12-03T18:12:49.609Z,95.74
2022-12-03T18:15:16.798Z,96.46
2022-12-03T18:17:43.337Z,96.91
2022-12-03T18:20:10.012Z,95.99
2022-12-03T18:22:36.566Z,97.48
2022-12-03T18:25:03.594Z,97.17
2022-12-03T18:27:30.164Z,96.36
2022-12-03T18:29:57.268Z,96.60
2022-12-03T18:32:29.178Z,96.71
2022-12-03T18:34:56.920Z,96.69
2022-12-03T18:37:27.207Z,98.10
2022-12-03T18:39:54.062Z,97.09
2022-12-03T18:42:21.623Z,97.00
2022-12-03T18:44:50.007Z,97.88
2022-12-03T18:47:18.708Z,97.42
2022-12-03T18:49:45.393Z,97.50
2022-12-03T18:52:15.861Z,97.70
2022-12-03T18:54:45.158Z,97.57
2022-12-03T18:57:11.712Z,97.40
2022-12-03T18:59:41.502Z,97.88
2022-12-03T19:02:08.229Z,98.50
2022-12-03T19:04:34.835Z,97.72
2022-12-03T19:07:03.313Z,98.00
2022-12-03T19:09:32.785Z,98.12
2022-12-03T19:11:59.355Z,98.16
2022-12-03T19:14:29.044Z,98.55
2022-12-03T19:16:55.696Z,98.80
2022-12-03T19:19:22.267Z,100.00
2022-12-03T19:21:51.937Z,98.01
2022-12-03T19:24:25.892Z,98.03
2022-12-03T19:26:54.858Z,97.88
2022-12-03T19:29:24.723Z,98.07
2022-12-03T19:31:51.956Z,98.49
2022-12-03T19:34:18.706Z,97.42
2022-12-03T19:36:48.271Z,98.24
2022-12-03T19:39:14.911Z,98.46
2022-12-03T19:41:43.649Z,97.89
2022-12-03T19:44:14.437Z,98.44
2022-12-03T19:46:41.096Z,98.39
2022-12-03T19:49:11.022Z,98.46
2022-12-03T19:51:37.677Z,98.50
2022-12-03T19:54:05.467Z,98.42
2022-12-03T19:56:32.056Z,97.90
2022-12-03T19:58:58.788Z,98.38
2022-12-03T20:01:27.189Z,98.77
2022-12-03T20:03:58.173Z,98.70
2022-12-03T20:06:26.648Z,98.77
2022-12-03T20:08:57.390Z,98.58
2022-12-03T20:11:25.559Z,98.18
2022-12-03T20:13:53.556Z,98.55
2022-12-03T20:16:29.059Z,98.42
2022-12-03T20:19:00.127Z,97.91
2022-12-03T20:21:26.898Z,98.17
2022-12-03T20:23:53.460Z,98.42
2022-12-03T20:26:20.949Z,97.49
2022-12-03T20:28:48.447Z,98.18
2022-12-03T20:31:18.716Z,98.76
2022-12-03T20:33:48.414Z,98.18
2022-12-03T20:36:22.971Z,99.17
2022-12-03T20:38:56.486Z,98.30
2022-12-03T20:41:23.463Z,98.10
2022-12-03T20:43:50.866Z,99.19
2022-12-03T20:46:18.959Z,97.62
2022-12-03T20:48:46.230Z,97.93
2022-12-03T20:51:18.643Z,98.80
2022-12-03T20:53:46.042Z,97.81
2022-12-03T20:56:23.000Z,99.28
2022-12-03T20:58:52.358Z,97.90
2022-12-03T21:01:24.929Z,98.96
2022-12-03T21:03:53.338Z,99.31
2022-12-03T21:06:21.240Z,99.01
2022-12-03T21:08:52.325Z,98.25
2022-12-03T21:11:23.893Z,99.80
2022-12-03T21:13:51.297Z,99.64
2022-12-03T21:16:39.740Z,99.69
2022-12-03T21:19:12.179Z,100.00
2022-12-03T21:21:38.684Z,98.30
2022-12-03T21:24:05.539Z,99.58
2022-12-03T21:26:32.663Z,99.37
2022-12-03T21:28:59.178Z,98.77
2022-12-03T21:31:26.739Z,98.91
2022-12-03T21:33:56.835Z,99.84
2022-12-03T21:36:25.028Z,99.51
2022-12-03T21:38:52.288Z,100.00
2022-12-03T21:41:19.355Z,98.95
2022-12-03T21:43:45.931Z,100.00
2022-12-03T21:47:10.002Z,99.38
2022-12-03T21:49:04.046Z,99.93
2022-12-03T21:51:30.692Z,100.00
2022-12-03T21:53:57.271Z,100.00
2022-12-03T21:56:24.117Z,100.00
2022-12-03T21:58:50.683Z,100.00
2022-12-03T22:01:26.425Z,99.81
2022-12-03T22:03:53.034Z,99.46
2022-12-03T22:06:20.155Z,99.58
2022-12-03T22:08:50.135Z,99.63
2022-12-03T22:11:19.754Z,99.64
2022-12-03T22:13:49.658Z,100.00
2022-12-03T22:16:20.506Z,100.00
2022-12-03T22:18:47.646Z,100.00
2022-12-03T22:21:17.909Z,99.79
2022-12-03T22:23:45.813Z,99.46
2022-12-03T22:26:13.232Z,100.00
2022-12-03T22:28:47.245Z,99.79
2022-12-03T22:31:14.799Z,100.00
2022-12-03T22:33:42.138Z,100.00
2022-12-03T22:36:19.597Z,99.27
2022-12-03T22:38:47.803Z,99.33
2022-12-03T22:41:14.788Z,99.75
2022-12-03T22:43:41.986Z,100.00
2022-12-03T22:46:12.399Z,100.00
2022-12-03T22:48:40.828Z,100.00
2022-12-03T22:51:19.072Z,100.00
2022-12-03T22:53:56.511Z,100.00
2022-12-03T22:56:23.728Z,100.00
2022-12-03T22:58:50.331Z,100.00
2022-12-03T23:01:24.853Z,100.00
2022-12-03T23:03:51.679Z,99.45
2022-12-03T23:06:19.426Z,100.00
2022-12-03T23:08:49.743Z,100.00
2022-12-03T23:11:22.490Z,100.00
2022-12-03T23:13:49.047Z,99.95
2022-12-03T23:16:22.205Z,100.00
2022-12-03T23:18:54.705Z,99.50
2022-12-03T23:21:29.486Z,100.00
2022-12-03T23:23:57.316Z,99.58
2022-12-03T23:26:27.051Z,100.00
2022-12-03T23:28:53.888Z,100.00
2022-12-03T23:31:31.467Z,99.84
2022-12-03T23:33:59.431Z,100.00
2022-12-03T23:36:28.709Z,100.00
2022-12-03T23:38:57.791Z,99.93
2022-12-03T23:41:25.363Z,100.00
2022-12-03T23:44:01.341Z,99.89
2022-12-03T23:46:28.498Z,99.96
2022-12-03T23:48:55.655Z,100.00
2022-12-03T23:51:31.730Z,99.87
2022-12-03T23:53:58.262Z,100.00
2022-12-03T23:56:40.686Z,100.00
2022-12-03T23:59:07.164Z,100.00
